Current Conditions
Clear
Conditions



Pressure
1019.92 (hPa) - 30.12 (inHG)
Visibility

10.0 (km) - 6.2 (miles)
   Temperature
12  °C
54°F
11  °C
Dewpoint
94  %
 Humidity
   Wind Speed
8  km/h
4  kts
5  mph
2.2  m/s
   Wind Direction
 160°
South South
East
   Airport Data
EHAM
Location Amsterdam Schiphol 80 km (49.72 mi)
Metar :EHAM 170225Z 16004KT CAVOK 12/11 Q1020 NOSIG
Mon 17th June 04:25 am
   Raw Metar Info
Raw METAR is the most common format in the world for the transmission of observational weather data. It is highly standardized through the International Civil Aviation Organization (ICAO), which allows it to be understood throughout most of the world.
   API Info
Data Provided by
https://www.checkwx.com/weather/EHAM
   © Info
CSS/SVG/PHP scripts were developed by weather34.com for use in the weather34 template © 2015-2019

Guide Info provided by Metar-Wikipedia